Time,TemperatureF,DewpointF,PressureIn,WindDirection,WindDirectionDegrees,WindSpeedMPH,WindSpeedGustMPH,Humidity,HourlyPrecipIn,Conditions,Clouds,dailyrainin,SolarRadiationWatts/m^2,SoftwareType,DateUTC
2013-06-19 00:00:00,50.5,46.6,30.08,ENE,60,0.0,1.0,86,0.00,,,0.00,0.0,meteohub,2013-06-19 04:00:00,
2013-06-19 00:01:00,50.4,46.4,30.08,ENE,60,0.0,1.0,86,0.00,,,0.00,0.0,meteohub,2013-06-19 04:01:00,
2013-06-19 00:02:00,50.4,46.6,30.08,ENE,60,0.0,1.0,87,0.00,,,0.00,0.0,meteohub,2013-06-19 04:02:00,
2013-06-19 00:07:00,49.8,46.4,30.08,ENE,60,0.0,1.0,88,0.00,,,0.00,0.0,meteohub,2013-06-19 04:07:00,
2013-06-19 00:12:00,49.6,46.2,30.08,ENE,60,0.0,1.0,88,0.00,,,0.00,0.0,meteohub,2013-06-19 04:12:00,
2013-06-19 00:17:00,49.5,46.4,30.07,ENE,60,0.0,1.0,89,0.00,,,0.00,0.0,meteohub,2013-06-19 04:17:00,
2013-06-19 00:22:00,48.9,45.9,30.08,ENE,60,0.0,0.0,89,0.00,,,0.00,0.0,meteohub,2013-06-19 04:22:00,
2013-06-19 00:28:00,48.7,45.9,30.08,ENE,60,0.0,0.0,90,0.00,,,0.00,0.0,meteohub,2013-06-19 04:28:00,
2013-06-19 00:34:00,48.6,46.4,30.08,ENE,60,0.0,1.0,92,0.00,,,0.00,0.0,meteohub,2013-06-19 04:34:00,
2013-06-19 00:39:00,48.4,46.2,30.08,ENE,60,1.0,1.0,92,0.00,,,0.00,0.0,meteohub,2013-06-19 04:39:00,
2013-06-19 00:44:00,48.4,46.2,30.08,ENE,60,0.0,1.0,92,0.00,,,0.00,0.0,meteohub,2013-06-19 04:44:00,
2013-06-19 00:49:00,48.4,46.2,30.08,ENE,60,0.0,1.0,92,0.00,,,0.00,0.0,meteohub,2013-06-19 04:49:00,
2013-06-19 00:54:00,48.0,45.9,30.08,ENE,60,0.0,1.0,92,0.00,,,0.00,0.0,meteohub,2013-06-19 04:54:00,
2013-06-19 01:00:00,48.0,46.0,30.08,ENE,60,0.0,1.0,93,0.00,,,0.00,0.0,meteohub,2013-06-19 05:00:00,
2013-06-19 01:05:00,48.0,46.0,30.08,ENE,60,0.0,0.0,93,0.00,,,0.00,0.0,meteohub,2013-06-19 05:05:00,
2013-06-19 01:10:00,47.8,45.7,30.08,ENE,60,1.0,0.0,92,0.00,,,0.00,0.0,meteohub,2013-06-19 05:10:00,
2013-06-19 01:15:00,47.7,45.5,30.08,ENE,60,1.0,0.0,92,0.00,,,0.00,0.0,meteohub,2013-06-19 05:15:00,
2013-06-19 01:20:00,47.3,45.3,30.08,ENE,60,0.0,2.0,93,0.00,,,0.00,0.0,meteohub,2013-06-19 05:20:00,
2013-06-19 01:25:00,47.1,45.5,30.08,ENE,60,0.0,2.0,94,0.00,,,0.00,0.0,meteohub,2013-06-19 05:25:00,
2013-06-19 01:30:00,46.9,45.3,30.08,ENE,60,0.0,2.0,94,0.00,,,0.00,0.0,meteohub,2013-06-19 05:30:00,
2013-06-19 01:35:00,46.9,45.3,30.08,ENE,60,0.0,2.0,94,0.00,,,0.00,0.0,meteohub,2013-06-19 05:35:00,
2013-06-19 01:40:00,46.9,45.0,30.08,ENE,60,1.0,1.0,93,0.00,,,0.00,0.0,meteohub,2013-06-19 05:40:00,
2013-06-19 01:45:00,46.6,44.6,30.08,ENE,60,0.0,1.0,93,0.00,,,0.00,0.0,meteohub,2013-06-19 05:45:00,
2013-06-19 01:50:00,46.6,44.6,30.08,ENE,60,0.0,1.0,93,0.00,,,0.00,0.0,meteohub,2013-06-19 05:50:00,
2013-06-19 01:55:00,46.4,44.8,30.08,ENE,60,0.0,1.0,94,0.00,,,0.00,0.0,meteohub,2013-06-19 05:55:00,
2013-06-19 02:00:00,46.2,44.6,30.08,ENE,60,0.0,1.0,94,0.00,,,0.00,0.0,meteohub,2013-06-19 06:00:00,
2013-06-19 02:05:00,46.0,44.4,30.08,ENE,60,0.0,1.0,94,0.00,,,0.00,0.0,meteohub,2013-06-19 06:05:00,
2013-06-19 02:10:00,46.0,44.4,30.08,ENE,60,1.0,1.0,94,0.00,,,0.00,0.0,meteohub,2013-06-19 06:10:00,
2013-06-19 02:15:00,45.9,44.2,30.09,ENE,60,0.0,1.0,94,0.00,,,0.00,0.0,meteohub,2013-06-19 06:15:00,
2013-06-19 02:20:00,45.9,44.2,30.08,ENE,60,0.0,1.0,94,0.00,,,0.00,0.0,meteohub,2013-06-19 06:20:00,
2013-06-19 02:25:00,45.9,43.9,30.08,ENE,60,0.0,1.0,93,0.00,,,0.00,0.0,meteohub,2013-06-19 06:25:00,
2013-06-19 02:30:00,45.7,43.7,30.08,ENE,60,0.0,0.0,93,0.00,,,0.00,0.0,meteohub,2013-06-19 06:30:00,
2013-06-19 02:35:00,45.3,43.3,30.09,ENE,60,0.0,0.0,93,0.00,,,0.00,0.0,meteohub,2013-06-19 06:35:00,
2013-06-19 02:40:00,45.1,43.2,30.09,ENE,60,0.0,0.0,93,0.00,,,0.00,0.0,meteohub,2013-06-19 06:40:00,
2013-06-19 02:45:00,45.1,43.5,30.09,ENE,60,0.0,0.0,94,0.00,,,0.00,0.0,meteohub,2013-06-19 06:45:00,
2013-06-19 02:50:00,45.0,43.3,30.09,ENE,60,0.0,0.0,94,0.00,,,0.00,0.0,meteohub,2013-06-19 06:50:00,
2013-06-19 02:55:00,45.0,43.3,30.09,ENE,60,0.0,0.0,94,0.00,,,0.00,0.0,meteohub,2013-06-19 06:55:00,
2013-06-19 03:00:00,44.8,43.2,30.09,ENE,60,0.0,1.0,94,0.00,,,0.00,0.0,meteohub,2013-06-19 07:00:00,
2013-06-19 03:05:00,44.6,43.0,30.09,ENE,60,0.0,1.0,94,0.00,,,0.00,0.0,meteohub,2013-06-19 07:05:00,
2013-06-19 03:10:00,44.4,42.8,30.09,ENE,60,0.0,1.0,94,0.00,,,0.00,0.0,meteohub,2013-06-19 07:10:00,
2013-06-19 03:15:00,44.2,42.6,30.09,ENE,60,1.0,1.0,94,0.00,,,0.00,0.0,meteohub,2013-06-19 07:15:00,
2013-06-19 03:20:00,44.1,42.4,30.08,ENE,60,0.0,1.0,94,0.00,,,0.00,0.0,meteohub,2013-06-19 07:20:00,
2013-06-19 03:25:00,44.1,42.8,30.08,ENE,60,0.0,1.0,95,0.00,,,0.00,0.0,meteohub,2013-06-19 07:25:00,
2013-06-19 03:30:00,43.9,42.6,30.08,ENE,60,0.0,1.0,95,0.00,,,0.00,0.0,meteohub,2013-06-19 07:30:00,
2013-06-19 03:35:00,43.7,42.4,30.08,ENE,63,0.0,2.0,95,0.00,,,0.00,0.0,meteohub,2013-06-19 07:35:00,
2013-06-19 03:41:00,43.9,42.6,30.09,ENE,63,0.0,2.0,95,0.00,,,0.00,0.0,meteohub,2013-06-19 07:41:00,
2013-06-19 03:46:00,44.2,43.2,30.09,ENE,63,0.0,2.0,96,0.00,,,0.00,0.0,meteohub,2013-06-19 07:46:00,
2013-06-19 03:51:00,44.4,43.3,30.09,ENE,63,0.0,1.0,96,0.00,,,0.00,0.0,meteohub,2013-06-19 07:51:00,
2013-06-19 03:56:00,44.4,43.3,30.09,ENE,63,0.0,0.0,96,0.00,,,0.00,0.0,meteohub,2013-06-19 07:56:00,
2013-06-19 04:01:00,44.2,43.0,30.09,ENE,63,1.0,0.0,95,0.00,,,0.00,0.0,meteohub,2013-06-19 08:01:00,
2013-06-19 04:06:00,44.1,42.4,30.09,ENE,63,0.0,1.0,94,0.00,,,0.00,0.0,meteohub,2013-06-19 08:06:00,
2013-06-19 04:11:00,44.1,42.8,30.10,ENE,63,0.0,1.0,95,0.00,,,0.00,0.0,meteohub,2013-06-19 08:11:00,
2013-06-19 04:16:00,43.9,42.6,30.10,ENE,63,0.0,1.0,95,0.00,,,0.00,0.0,meteohub,2013-06-19 08:16:00,
2013-06-19 04:21:00,43.5,42.3,30.10,ENE,63,0.0,1.0,95,0.00,,,0.00,0.0,meteohub,2013-06-19 08:21:00,
2013-06-19 04:26:00,43.3,42.1,30.10,ENE,63,0.0,1.0,95,0.00,,,0.00,0.0,meteohub,2013-06-19 08:26:00,
2013-06-19 04:31:00,43.2,41.9,30.10,ENE,63,0.0,1.0,95,0.00,,,0.00,0.0,meteohub,2013-06-19 08:31:00,
2013-06-19 04:36:00,43.2,41.9,30.10,ENE,63,0.0,1.0,95,0.00,,,0.00,0.0,meteohub,2013-06-19 08:36:00,
2013-06-19 04:41:00,43.0,41.7,30.11,ENE,63,0.0,1.0,95,0.00,,,0.00,0.0,meteohub,2013-06-19 08:41:00,
2013-06-19 04:46:00,42.8,41.5,30.11,ENE,74,1.0,2.0,95,0.00,,,0.00,0.0,meteohub,2013-06-19 08:46:00,
2013-06-19 04:51:00,42.6,41.4,30.11,SSW,211,2.0,2.0,95,0.00,,,0.00,0.0,meteohub,2013-06-19 08:51:00,
2013-06-19 04:56:00,42.6,41.5,30.11,SSW,207,2.0,3.0,96,0.00,,,0.00,0.0,meteohub,2013-06-19 08:56:00,
2013-06-19 05:01:00,43.3,42.6,30.11,SSW,212,1.0,4.0,97,0.00,,,0.00,0.0,meteohub,2013-06-19 09:01:00,
2013-06-19 05:06:00,44.2,43.5,30.11,SW,236,0.0,4.0,97,0.00,,,0.00,0.0,meteohub,2013-06-19 09:06:00,
2013-06-19 05:11:00,44.2,43.5,30.11,SW,236,1.0,4.0,97,0.00,,,0.00,0.0,meteohub,2013-06-19 09:11:00,
2013-06-19 05:16:00,44.4,43.7,30.11,SW,225,1.0,3.0,97,0.00,,,0.00,0.0,meteohub,2013-06-19 09:16:00,
2013-06-19 05:21:00,45.3,44.8,30.11,SW,227,0.0,3.0,98,0.00,,,0.00,0.0,meteohub,2013-06-19 09:21:00,
2013-06-19 05:26:00,46.0,45.5,30.11,SW,227,1.0,3.0,98,0.00,,,0.00,0.0,meteohub,2013-06-19 09:26:00,
2013-06-19 05:31:00,46.0,45.5,30.11,SW,227,0.0,3.0,98,0.00,,,0.00,0.0,meteohub,2013-06-19 09:31:00,
2013-06-19 05:36:00,46.2,45.7,30.11,SW,227,0.0,2.0,98,0.00,,,0.00,0.0,meteohub,2013-06-19 09:36:00,
2013-06-19 05:41:00,46.6,46.0,30.12,SW,227,0.0,2.0,98,0.00,,,0.00,0.0,meteohub,2013-06-19 09:41:00,
2013-06-19 05:47:00,46.4,45.9,30.12,SW,227,0.0,1.0,98,0.00,,,0.00,0.0,meteohub,2013-06-19 09:47:00,
2013-06-19 05:52:00,46.2,45.7,30.12,SW,227,0.0,1.0,98,0.00,,,0.00,5.0,meteohub,2013-06-19 09:52:00,
2013-06-19 05:57:00,45.9,45.3,30.12,SW,227,0.0,1.0,98,0.00,,,0.00,9.0,meteohub,2013-06-19 09:57:00,
2013-06-19 06:02:00,45.5,44.8,30.12,SW,227,0.0,1.0,97,0.00,,,0.00,12.0,meteohub,2013-06-19 10:02:00,
2013-06-19 06:07:00,45.0,44.2,30.12,SW,227,0.0,1.0,97,0.00,,,0.00,18.0,meteohub,2013-06-19 10:07:00,
2013-06-19 06:12:00,44.4,43.7,30.13,SW,227,0.0,2.0,97,0.00,,,0.00,25.0,meteohub,2013-06-19 10:12:00,
2013-06-19 06:17:00,44.1,43.3,30.13,SW,227,1.0,2.0,97,0.00,,,0.00,32.0,meteohub,2013-06-19 10:17:00,
2013-06-19 06:22:00,44.1,43.3,30.13,WSW,237,0.0,3.0,97,0.00,,,0.00,42.0,meteohub,2013-06-19 10:22:00,
2013-06-19 06:27:00,45.0,44.2,30.14,SW,236,2.0,3.0,97,0.00,,,0.00,51.0,meteohub,2013-06-19 10:27:00,
2013-06-19 06:32:00,45.9,45.3,30.14,WSW,252,1.0,4.0,98,0.00,,,0.00,63.0,meteohub,2013-06-19 10:32:00,
2013-06-19 06:37:00,46.8,46.2,30.14,SSW,208,0.0,4.0,98,0.00,,,0.00,76.0,meteohub,2013-06-19 10:37:00,
2013-06-19 06:42:00,47.3,46.8,30.14,SSW,208,0.0,4.0,98,0.00,,,0.00,91.0,meteohub,2013-06-19 10:42:00,
2013-06-19 06:47:00,47.7,47.1,30.14,SSW,208,0.0,4.0,98,0.00,,,0.00,104.0,meteohub,2013-06-19 10:47:00,
2013-06-19 06:52:00,48.6,48.0,30.14,SW,227,0.0,2.0,98,0.00,,,0.00,102.0,meteohub,2013-06-19 10:52:00,
2013-06-19 06:57:00,48.9,48.4,30.14,SW,227,0.0,2.0,98,0.00,,,0.00,132.0,meteohub,2013-06-19 10:57:00,
2013-06-19 07:02:00,49.5,48.4,30.14,SW,227,0.0,2.0,96,0.00,,,0.00,134.0,meteohub,2013-06-19 11:02:00,
2013-06-19 07:07:00,50.0,48.6,30.14,SW,227,0.0,1.0,95,0.00,,,0.00,146.0,meteohub,2013-06-19 11:07:00,
2013-06-19 07:12:00,50.4,48.7,30.14,SW,219,0.0,1.0,94,0.00,,,0.00,146.0,meteohub,2013-06-19 11:12:00,
2013-06-19 07:17:00,50.7,49.1,30.14,SW,231,2.0,3.0,94,0.00,,,0.00,169.0,meteohub,2013-06-19 11:17:00,
2013-06-19 07:22:00,51.4,49.8,30.15,SW,235,2.0,4.0,94,0.00,,,0.00,202.0,meteohub,2013-06-19 11:22:00,
2013-06-19 07:27:00,52.2,50.2,30.15,SW,232,2.0,5.0,93,0.00,,,0.00,202.0,meteohub,2013-06-19 11:27:00,
2013-06-19 07:32:00,52.5,50.2,30.15,SSW,213,4.0,5.0,92,0.00,,,0.00,229.0,meteohub,2013-06-19 11:32:00,
2013-06-19 07:37:00,53.1,50.5,30.15,SW,221,3.0,5.0,91,0.00,,,0.00,243.0,meteohub,2013-06-19 11:37:00,
2013-06-19 07:42:00,53.2,50.4,30.14,SW,229,2.0,6.0,90,0.00,,,0.00,257.0,meteohub,2013-06-19 11:42:00,
2013-06-19 07:47:00,53.6,50.4,30.14,SW,228,3.0,6.0,89,0.00,,,0.00,262.0,meteohub,2013-06-19 11:47:00,
2013-06-19 07:52:00,53.8,50.5,30.14,SW,221,3.0,6.0,89,0.00,,,0.00,148.0,meteohub,2013-06-19 11:52:00,
2013-06-19 07:57:00,54.0,50.7,30.14,WSW,238,4.0,7.0,89,0.00,,,0.00,278.0,meteohub,2013-06-19 11:57:00,
2013-06-19 08:02:00,54.1,50.9,30.14,SSW,213,3.0,7.0,89,0.00,,,0.00,325.0,meteohub,2013-06-19 12:02:00,
2013-06-19 08:07:00,54.5,50.7,30.14,SW,223,2.0,6.0,87,0.00,,,0.00,341.0,meteohub,2013-06-19 12:07:00,
2013-06-19 08:12:00,55.0,51.3,30.15,SW,219,1.0,6.0,87,0.00,,,0.00,353.0,meteohub,2013-06-19 12:12:00,
2013-06-19 08:17:00,55.6,51.4,30.15,WSW,242,4.0,6.0,86,0.00,,,0.00,364.0,meteohub,2013-06-19 12:17:00,
2013-06-19 08:22:00,55.9,51.3,30.15,WSW,252,0.0,6.0,84,0.00,,,0.00,380.0,meteohub,2013-06-19 12:22:00,
2013-06-19 08:27:00,56.5,50.4,30.15,SW,215,2.0,5.0,80,0.00,,,0.00,397.0,meteohub,2013-06-19 12:27:00,
2013-06-19 08:32:00,56.7,50.2,30.15,SSW,207,1.0,5.0,79,0.00,,,0.00,413.0,meteohub,2013-06-19 12:32:00,
2013-06-19 08:37:00,56.8,49.6,30.15,SSW,211,3.0,4.0,77,0.00,,,0.00,429.0,meteohub,2013-06-19 12:37:00,
2013-06-19 08:42:00,57.0,49.8,30.15,SSW,212,1.0,6.0,77,0.00,,,0.00,443.0,meteohub,2013-06-19 12:42:00,
2013-06-19 08:47:00,57.6,48.9,30.15,SSW,211,2.0,6.0,73,0.00,,,0.00,457.0,meteohub,2013-06-19 12:47:00,
2013-06-19 08:52:00,57.9,48.9,30.15,SW,215,3.0,6.0,72,0.00,,,0.00,476.0,meteohub,2013-06-19 12:52:00,
2013-06-19 08:57:00,58.6,49.3,30.15,SSW,201,1.0,6.0,71,0.00,,,0.00,489.0,meteohub,2013-06-19 12:57:00,
2013-06-19 09:02:00,59.2,49.1,30.15,SSW,202,5.0,6.0,69,0.00,,,0.00,504.0,meteohub,2013-06-19 13:02:00,
2013-06-19 09:07:00,59.0,49.3,30.15,South,190,2.0,6.0,70,0.00,,,0.00,519.0,meteohub,2013-06-19 13:07:00,
2013-06-19 09:12:00,59.2,48.6,30.15,SSE,167,1.0,6.0,68,0.00,,,0.00,534.0,meteohub,2013-06-19 13:12:00,
2013-06-19 09:17:00,59.4,48.7,30.16,SSW,211,1.0,6.0,68,0.00,,,0.00,548.0,meteohub,2013-06-19 13:17:00,
2013-06-19 09:22:00,59.5,48.6,30.15,WSW,251,3.0,7.0,67,0.00,,,0.00,564.0,meteohub,2013-06-19 13:22:00,
2013-06-19 09:27:00,59.9,48.6,30.15,SW,232,2.0,8.0,66,0.00,,,0.00,578.0,meteohub,2013-06-19 13:27:00,
2013-06-19 09:32:00,60.3,49.6,30.15,WSW,242,4.0,8.0,68,0.00,,,0.00,592.0,meteohub,2013-06-19 13:32:00,
2013-06-19 09:37:00,61.0,49.5,30.15,SW,224,2.0,7.0,66,0.00,,,0.00,608.0,meteohub,2013-06-19 13:37:00,
2013-06-19 09:42:00,62.1,50.5,30.15,SSW,213,3.0,7.0,66,0.00,,,0.00,624.0,meteohub,2013-06-19 13:42:00,
2013-06-19 09:47:00,62.1,50.9,30.15,SSW,194,5.0,6.0,67,0.00,,,0.00,642.0,meteohub,2013-06-19 13:47:00,
2013-06-19 09:52:00,62.8,50.4,30.16,SW,225,3.0,6.0,64,0.00,,,0.00,654.0,meteohub,2013-06-19 13:52:00,
2013-06-19 09:58:00,62.8,50.4,30.15,SW,217,2.0,6.0,64,0.00,,,0.00,677.0,meteohub,2013-06-19 13:58:00,
2013-06-19 10:03:00,63.0,51.1,30.15,SW,221,3.0,7.0,65,0.00,,,0.00,701.0,meteohub,2013-06-19 14:03:00,
2013-06-19 10:08:00,63.9,51.4,30.15,WSW,245,3.0,7.0,64,0.00,,,0.00,729.0,meteohub,2013-06-19 14:08:00,
2013-06-19 10:13:00,63.1,50.7,30.15,SW,226,4.0,8.0,64,0.00,,,0.00,468.0,meteohub,2013-06-19 14:13:00,
2013-06-19 10:18:00,63.1,51.3,30.15,SW,228,3.0,8.0,65,0.00,,,0.00,492.0,meteohub,2013-06-19 14:18:00,
2013-06-19 10:23:00,63.3,51.8,30.15,SSW,192,2.0,8.0,66,0.00,,,0.00,751.0,meteohub,2013-06-19 14:23:00,
2013-06-19 10:28:00,63.3,51.8,30.15,SW,227,4.0,7.0,66,0.00,,,0.00,316.0,meteohub,2013-06-19 14:28:00,
2013-06-19 10:33:00,64.0,52.5,30.15,South,187,3.0,7.0,66,0.00,,,0.00,452.0,meteohub,2013-06-19 14:33:00,
2013-06-19 10:38:00,64.4,52.0,30.15,WSW,244,3.0,7.0,64,0.00,,,0.00,294.0,meteohub,2013-06-19 14:38:00,
2013-06-19 10:43:00,63.3,51.8,30.14,SW,215,1.0,6.0,66,0.00,,,0.00,348.0,meteohub,2013-06-19 14:43:00,
2013-06-19 10:48:00,63.9,51.8,30.14,South,190,4.0,6.0,65,0.00,,,0.00,807.0,meteohub,2013-06-19 14:48:00,
2013-06-19 10:53:00,65.3,50.5,30.14,South,190,2.0,6.0,59,0.00,,,0.00,649.0,meteohub,2013-06-19 14:53:00,
2013-06-19 10:58:00,64.9,48.4,30.15,SW,231,3.0,6.0,55,0.00,,,0.00,918.0,meteohub,2013-06-19 14:58:00,
2013-06-19 11:03:00,66.0,47.3,30.15,WSW,239,3.0,7.0,51,0.00,,,0.00,898.0,meteohub,2013-06-19 15:03:00,
2013-06-19 11:08:00,67.5,49.3,30.14,SW,221,1.0,7.0,52,0.00,,,0.00,877.0,meteohub,2013-06-19 15:08:00,
2013-06-19 11:13:00,67.3,48.6,30.14,SSW,200,5.0,7.0,51,0.00,,,0.00,478.0,meteohub,2013-06-19 15:13:00,
2013-06-19 11:18:00,66.6,48.9,30.15,West,261,7.0,9.0,53,0.00,,,0.00,918.0,meteohub,2013-06-19 15:18:00,
2013-06-19 11:23:00,65.1,45.5,30.15,SW,218,6.0,9.0,49,0.00,,,0.00,896.0,meteohub,2013-06-19 15:23:00,
2013-06-19 11:28:00,66.7,48.6,30.14,SW,231,2.0,9.0,52,0.00,,,0.00,912.0,meteohub,2013-06-19 15:28:00,
2013-06-19 11:33:00,67.8,48.0,30.14,WSW,244,4.0,8.0,49,0.00,,,0.00,907.0,meteohub,2013-06-19 15:33:00,
2013-06-19 11:38:00,68.5,49.1,30.14,SW,229,3.0,8.0,50,0.00,,,0.00,904.0,meteohub,2013-06-19 15:38:00,
2013-06-19 11:43:00,67.3,46.9,30.14,SW,227,4.0,7.0,48,0.00,,,0.00,905.0,meteohub,2013-06-19 15:43:00,
2013-06-19 11:48:00,67.6,48.4,30.14,WSW,258,2.0,8.0,50,0.00,,,0.00,909.0,meteohub,2013-06-19 15:48:00,
2013-06-19 11:53:00,66.9,46.0,30.14,SSW,209,3.0,8.0,47,0.00,,,0.00,911.0,meteohub,2013-06-19 15:53:00,
2013-06-19 11:58:00,67.8,45.7,30.14,SW,224,5.0,8.0,45,0.00,,,0.00,918.0,meteohub,2013-06-19 15:58:00,
2013-06-19 12:03:00,67.5,44.2,30.14,SSW,196,7.0,8.0,43,0.00,,,0.00,925.0,meteohub,2013-06-19 16:03:00,
2013-06-19 12:08:00,66.7,44.1,30.14,SSW,211,3.0,10.0,44,0.00,,,0.00,932.0,meteohub,2013-06-19 16:08:00,
2013-06-19 12:13:00,67.8,45.7,30.14,SW,225,4.0,11.0,45,0.00,,,0.00,940.0,meteohub,2013-06-19 16:13:00,
2013-06-19 12:18:00,67.6,45.0,30.14,South,185,4.0,11.0,44,0.00,,,0.00,947.0,meteohub,2013-06-19 16:18:00,
2013-06-19 12:23:00,67.5,43.0,30.13,SSW,210,6.0,9.0,41,0.00,,,0.00,951.0,meteohub,2013-06-19 16:23:00,
2013-06-19 12:28:00,67.5,43.5,30.13,SW,225,1.0,9.0,42,0.00,,,0.00,956.0,meteohub,2013-06-19 16:28:00,
2013-06-19 12:33:00,69.4,47.1,30.13,SW,222,3.0,9.0,45,0.00,,,0.00,963.0,meteohub,2013-06-19 16:33:00,
2013-06-19 12:38:00,70.3,45.0,30.13,West,265,2.0,9.0,40,0.00,,,0.00,979.0,meteohub,2013-06-19 16:38:00,
2013-06-19 12:43:00,70.5,43.0,30.12,SW,225,5.0,8.0,37,0.00,,,0.00,984.0,meteohub,2013-06-19 16:43:00,
2013-06-19 12:48:00,69.4,45.3,30.12,SW,223,4.0,6.0,42,0.00,,,0.00,993.0,meteohub,2013-06-19 16:48:00,
2013-06-19 12:53:00,69.6,43.5,30.12,South,171,4.0,8.0,39,0.00,,,0.00,993.0,meteohub,2013-06-19 16:53:00,
2013-06-19 12:58:00,68.9,45.5,30.12,SSW,206,4.0,8.0,43,0.00,,,0.00,986.0,meteohub,2013-06-19 16:58:00,
2013-06-19 13:04:00,70.0,42.4,30.12,SSW,196,3.0,8.0,37,0.00,,,0.00,986.0,meteohub,2013-06-19 17:04:00,
2013-06-19 13:09:00,70.0,43.9,30.12,WSW,244,2.0,8.0,39,0.00,,,0.00,984.0,meteohub,2013-06-19 17:09:00,
2013-06-19 13:14:00,70.3,42.8,30.12,SW,219,3.0,8.0,37,0.00,,,0.00,986.0,meteohub,2013-06-19 17:14:00,
2013-06-19 13:19:00,71.8,44.8,30.12,SW,235,3.0,8.0,38,0.00,,,0.00,990.0,meteohub,2013-06-19 17:19:00,
2013-06-19 13:24:00,70.7,41.7,30.12,SSW,196,1.0,7.0,35,0.00,,,0.00,993.0,meteohub,2013-06-19 17:24:00,
2013-06-19 13:29:00,71.1,43.5,30.11,SW,232,3.0,7.0,37,0.00,,,0.00,995.0,meteohub,2013-06-19 17:29:00,
2013-06-19 13:34:00,71.2,43.7,30.11,NW,323,1.0,7.0,37,0.00,,,0.00,997.0,meteohub,2013-06-19 17:34:00,
2013-06-19 13:39:00,70.5,43.0,30.11,South,184,6.0,7.0,37,0.00,,,0.00,1000.0,meteohub,2013-06-19 17:39:00,
2013-06-19 13:44:00,70.5,42.3,30.11,East,97,0.0,9.0,36,0.00,,,0.00,1011.0,meteohub,2013-06-19 17:44:00,
2013-06-19 13:49:00,71.4,42.3,30.10,SSE,157,1.0,9.0,35,0.00,,,0.00,998.0,meteohub,2013-06-19 17:49:00,
2013-06-19 13:54:00,72.3,45.3,30.10,WSW,252,4.0,9.0,38,0.00,,,0.00,995.0,meteohub,2013-06-19 17:54:00,
2013-06-19 13:59:00,72.9,43.5,30.10,SSW,208,4.0,8.0,35,0.00,,,0.00,988.0,meteohub,2013-06-19 17:59:00,
2013-06-19 14:04:00,72.0,42.8,30.10,SW,229,2.0,7.0,35,0.00,,,0.00,988.0,meteohub,2013-06-19 18:04:00,
2013-06-19 14:09:00,72.1,45.9,30.09,SSW,212,2.0,8.0,39,0.00,,,0.00,986.0,meteohub,2013-06-19 18:09:00,
2013-06-19 14:14:00,72.9,43.5,30.09,SSE,155,1.0,8.0,35,0.00,,,0.00,986.0,meteohub,2013-06-19 18:14:00,
2013-06-19 14:19:00,72.7,44.2,30.09,NW,311,1.0,8.0,36,0.00,,,0.00,986.0,meteohub,2013-06-19 18:19:00,
2013-06-19 14:24:00,73.0,42.3,30.09,NW,321,1.0,8.0,33,0.00,,,0.00,981.0,meteohub,2013-06-19 18:24:00,
2013-06-19 14:29:00,74.1,46.2,30.09,SSE,165,2.0,8.0,37,0.00,,,0.00,972.0,meteohub,2013-06-19 18:29:00,
2013-06-19 14:34:00,74.5,44.2,30.09,SW,227,4.0,8.0,34,0.00,,,0.00,967.0,meteohub,2013-06-19 18:34:00,
2013-06-19 14:39:00,72.9,42.1,30.09,South,181,2.0,4.0,33,0.00,,,0.00,965.0,meteohub,2013-06-19 18:39:00,
2013-06-19 14:44:00,73.4,44.1,30.09,South,184,2.0,5.0,35,0.00,,,0.00,960.0,meteohub,2013-06-19 18:44:00,
2013-06-19 14:49:00,73.0,44.4,30.09,WNW,291,2.0,9.0,36,0.00,,,0.00,953.0,meteohub,2013-06-19 18:49:00,
2013-06-19 14:54:00,73.2,47.5,30.09,ENE,68,5.0,9.0,40,0.00,,,0.00,951.0,meteohub,2013-06-19 18:54:00,
2013-06-19 14:59:00,70.7,47.7,30.09,NE,48,1.0,9.0,44,0.00,,,0.00,946.0,meteohub,2013-06-19 18:59:00,
2013-06-19 15:04:00,71.8,48.0,30.09,South,186,3.0,8.0,43,0.00,,,0.00,942.0,meteohub,2013-06-19 19:04:00,
2013-06-19 15:09:00,72.1,46.4,30.09,NE,54,1.0,8.0,40,0.00,,,0.00,935.0,meteohub,2013-06-19 19:09:00,
2013-06-19 15:14:00,73.2,48.7,30.09,North,349,1.0,7.0,42,0.00,,,0.00,933.0,meteohub,2013-06-19 19:14:00,
2013-06-19 15:19:00,72.7,49.5,30.09,North,5,1.0,6.0,44,0.00,,,0.00,921.0,meteohub,2013-06-19 19:19:00,
2013-06-19 15:24:00,71.4,49.6,30.09,NE,54,3.0,5.0,46,0.00,,,0.00,916.0,meteohub,2013-06-19 19:24:00,
2013-06-19 15:29:00,70.5,48.7,30.09,SSE,152,1.0,5.0,46,0.00,,,0.00,907.0,meteohub,2013-06-19 19:29:00,
2013-06-19 15:34:00,70.5,49.8,30.09,ENE,59,2.0,7.0,48,0.00,,,0.00,898.0,meteohub,2013-06-19 19:34:00,
2013-06-19 15:39:00,70.5,48.2,30.09,East,84,1.0,7.0,45,0.00,,,0.00,888.0,meteohub,2013-06-19 19:39:00,
2013-06-19 15:44:00,70.0,48.2,30.09,East,87,2.0,6.0,46,0.00,,,0.00,877.0,meteohub,2013-06-19 19:44:00,
2013-06-19 15:49:00,69.8,49.3,30.08,NNW,327,1.0,6.0,48,0.00,,,0.00,856.0,meteohub,2013-06-19 19:49:00,
2013-06-19 15:54:00,70.2,48.9,30.08,NNW,340,3.0,8.0,47,0.00,,,0.00,816.0,meteohub,2013-06-19 19:54:00,
2013-06-19 15:59:00,69.6,47.3,30.08,NNE,31,1.0,8.0,45,0.00,,,0.00,773.0,meteohub,2013-06-19 19:59:00,
2013-06-19 16:04:00,69.4,49.5,30.08,SW,219,2.0,8.0,49,0.00,,,0.00,842.0,meteohub,2013-06-19 20:04:00,
2013-06-19 16:09:00,69.4,47.1,30.08,NNW,334,1.0,7.0,45,0.00,,,0.00,772.0,meteohub,2013-06-19 20:09:00,
2013-06-19 16:14:00,69.1,46.2,30.08,NNW,335,2.0,7.0,44,0.00,,,0.00,738.0,meteohub,2013-06-19 20:14:00,
2013-06-19 16:19:00,68.5,46.9,30.08,NNE,22,2.0,7.0,46,0.00,,,0.00,724.0,meteohub,2013-06-19 20:19:00,
2013-06-19 16:24:00,68.4,47.8,30.08,North,350,0.0,6.0,48,0.00,,,0.00,814.0,meteohub,2013-06-19 20:24:00,
2013-06-19 16:29:00,68.7,48.2,30.08,NE,51,2.0,6.0,48,0.00,,,0.00,791.0,meteohub,2013-06-19 20:29:00,
2013-06-19 16:34:00,68.7,48.2,30.08,NE,41,0.0,8.0,48,0.00,,,0.00,731.0,meteohub,2013-06-19 20:34:00,
2013-06-19 16:40:00,68.9,48.4,30.08,NE,53,1.0,8.0,48,0.00,,,0.00,515.0,meteohub,2013-06-19 20:40:00,
2013-06-19 16:45:00,68.4,48.4,30.08,NNE,28,1.0,8.0,49,0.00,,,0.00,459.0,meteohub,2013-06-19 20:45:00,
2013-06-19 16:50:00,67.6,47.8,30.07,ENE,68,3.0,6.0,49,0.00,,,0.00,728.0,meteohub,2013-06-19 20:50:00,
2013-06-19 16:55:00,67.5,47.1,30.07,NE,43,6.0,7.0,48,0.00,,,0.00,341.0,meteohub,2013-06-19 20:55:00,
2013-06-19 17:00:00,67.5,47.1,30.08,East,86,3.0,7.0,48,0.00,,,0.00,186.0,meteohub,2013-06-19 21:00:00,
2013-06-19 17:05:00,67.6,46.8,30.08,ENE,75,4.0,7.0,47,0.00,,,0.00,91.0,meteohub,2013-06-19 21:05:00,
2013-06-19 17:10:00,67.5,47.1,30.08,North,350,2.0,8.0,48,0.00,,,0.00,77.0,meteohub,2013-06-19 21:10:00,
2013-06-19 17:15:00,67.3,46.9,30.08,East,98,5.0,9.0,48,0.00,,,0.00,137.0,meteohub,2013-06-19 21:15:00,
2013-06-19 17:20:00,67.1,45.7,30.08,ENE,75,7.0,9.0,46,0.00,,,0.00,288.0,meteohub,2013-06-19 21:20:00,
2013-06-19 17:25:00,66.9,45.5,30.08,NE,46,6.0,8.0,46,0.00,,,0.00,60.0,meteohub,2013-06-19 21:25:00,
2013-06-19 17:30:00,67.1,46.8,30.08,East,82,5.0,9.0,48,0.00,,,0.00,65.0,meteohub,2013-06-19 21:30:00,
2013-06-19 17:35:00,67.1,45.0,30.08,East,94,2.0,9.0,45,0.00,,,0.00,54.0,meteohub,2013-06-19 21:35:00,
2013-06-19 17:40:00,66.9,45.5,30.08,ENE,62,2.0,9.0,46,0.00,,,0.00,49.0,meteohub,2013-06-19 21:40:00,
2013-06-19 17:45:00,66.9,45.0,30.07,NE,53,4.0,8.0,45,0.00,,,0.00,47.0,meteohub,2013-06-19 21:45:00,
2013-06-19 17:50:00,66.9,45.0,30.07,East,84,5.0,10.0,45,0.00,,,0.00,62.0,meteohub,2013-06-19 21:50:00,
2013-06-19 17:55:00,66.9,45.5,30.07,ENE,61,2.0,10.0,46,0.00,,,0.00,51.0,meteohub,2013-06-19 21:55:00,
2013-06-19 18:00:00,66.7,43.5,30.07,NNW,346,2.0,8.0,43,0.00,,,0.00,44.0,meteohub,2013-06-19 22:00:00,
2013-06-19 18:05:00,66.6,44.1,30.07,East,100,3.0,8.0,44,0.00,,,0.00,46.0,meteohub,2013-06-19 22:05:00,
2013-06-19 18:10:00,66.6,44.6,30.07,ENE,71,7.0,8.0,45,0.00,,,0.00,65.0,meteohub,2013-06-19 22:10:00,
2013-06-19 18:15:00,66.7,45.9,30.07,NE,38,1.0,7.0,47,0.00,,,0.00,40.0,meteohub,2013-06-19 22:15:00,
2013-06-19 18:20:00,66.6,44.1,30.07,North,355,4.0,7.0,44,0.00,,,0.00,40.0,meteohub,2013-06-19 22:20:00,
2013-06-19 18:25:00,66.6,45.1,30.07,ESE,123,2.0,7.0,46,0.00,,,0.00,39.0,meteohub,2013-06-19 22:25:00,
2013-06-19 18:30:00,66.4,43.9,30.07,ENE,72,2.0,7.0,44,0.00,,,0.00,39.0,meteohub,2013-06-19 22:30:00,
2013-06-19 18:35:00,66.4,43.9,30.07,East,82,5.0,7.0,44,0.00,,,0.00,37.0,meteohub,2013-06-19 22:35:00,
2013-06-19 18:40:00,66.4,44.4,30.08,ENE,73,0.0,6.0,45,0.00,,,0.00,37.0,meteohub,2013-06-19 22:40:00,
2013-06-19 18:45:00,66.2,44.8,30.08,NE,35,1.0,6.0,46,0.00,,,0.00,35.0,meteohub,2013-06-19 22:45:00,
2013-06-19 18:50:00,66.0,44.1,30.08,ENE,68,3.0,6.0,45,0.00,,,0.00,35.0,meteohub,2013-06-19 22:50:00,
2013-06-19 18:55:00,65.8,44.4,30.08,ENE,65,1.0,7.0,46,0.00,,,0.00,33.0,meteohub,2013-06-19 22:55:00,
2013-06-19 19:00:00,65.8,44.4,30.07,North,5,2.0,7.0,46,0.00,,,0.00,33.0,meteohub,2013-06-19 23:00:00,
2013-06-19 19:05:00,65.7,43.7,30.08,ENE,67,2.0,7.0,45,0.00,,,0.00,32.0,meteohub,2013-06-19 23:05:00,
2013-06-19 19:10:00,65.7,44.2,30.08,ENE,77,0.0,7.0,46,0.00,,,0.00,35.0,meteohub,2013-06-19 23:10:00,
2013-06-19 19:15:00,65.7,44.2,30.08,NE,40,2.0,5.0,46,0.00,,,0.00,30.0,meteohub,2013-06-19 23:15:00,
2013-06-19 19:20:00,65.7,44.2,30.07,ENE,76,2.0,5.0,46,0.00,,,0.00,30.0,meteohub,2013-06-19 23:20:00,
2013-06-19 19:26:00,65.5,43.5,30.07,ENE,57,2.0,5.0,45,0.00,,,0.00,32.0,meteohub,2013-06-19 23:26:00,
2013-06-19 19:31:00,65.5,44.8,30.07,NE,54,4.0,5.0,47,0.00,,,0.00,28.0,meteohub,2013-06-19 23:31:00,
2013-06-19 19:36:00,65.5,43.5,30.07,ENE,57,2.0,5.0,45,0.00,,,0.00,28.0,meteohub,2013-06-19 23:36:00,
2013-06-19 19:41:00,65.3,44.1,30.07,ENE,68,4.0,5.0,46,0.00,,,0.00,26.0,meteohub,2013-06-19 23:41:00,
2013-06-19 19:46:00,65.3,43.3,30.08,NE,52,2.0,5.0,45,0.00,,,0.00,26.0,meteohub,2013-06-19 23:46:00,
2013-06-19 19:51:00,65.3,43.3,30.08,ENE,74,1.0,5.0,45,0.00,,,0.00,25.0,meteohub,2013-06-19 23:51:00,
2013-06-19 19:56:00,65.1,43.9,30.08,ENE,72,2.0,5.0,46,0.00,,,0.00,25.0,meteohub,2013-06-19 23:56:00,
2013-06-19 20:01:00,65.1,43.3,30.08,ENE,69,1.0,5.0,45,0.00,,,0.00,23.0,meteohub,2013-06-20 00:01:00,
2013-06-19 20:06:00,65.1,43.9,30.08,NE,41,2.0,5.0,46,0.00,,,0.00,23.0,meteohub,2013-06-20 00:06:00,
2013-06-19 20:11:00,65.1,43.9,30.08,ENE,67,1.0,5.0,46,0.00,,,0.00,23.0,meteohub,2013-06-20 00:11:00,
2013-06-19 20:16:00,64.9,43.7,30.08,NE,56,1.0,4.0,46,0.00,,,0.00,21.0,meteohub,2013-06-20 00:16:00,
2013-06-19 20:21:00,64.8,44.1,30.08,NE,49,1.0,4.0,47,0.00,,,0.00,21.0,meteohub,2013-06-20 00:21:00,
2013-06-19 20:26:00,64.8,45.1,30.08,ENE,65,2.0,3.0,49,0.00,,,0.00,19.0,meteohub,2013-06-20 00:26:00,
2013-06-19 20:31:00,64.4,45.3,30.08,NE,55,3.0,3.0,50,0.00,,,0.00,19.0,meteohub,2013-06-20 00:31:00,
2013-06-19 20:36:00,64.2,45.1,30.08,NE,51,2.0,4.0,50,0.00,,,0.00,18.0,meteohub,2013-06-20 00:36:00,
2013-06-19 20:41:00,64.0,45.5,30.08,ENE,61,1.0,4.0,51,0.00,,,0.00,16.0,meteohub,2013-06-20 00:41:00,
2013-06-19 20:46:00,63.9,45.9,30.08,ENE,61,1.0,4.0,52,0.00,,,0.00,16.0,meteohub,2013-06-20 00:46:00,
2013-06-19 20:51:00,63.7,45.7,30.08,ENE,61,0.0,3.0,52,0.00,,,0.00,14.0,meteohub,2013-06-20 00:51:00,
2013-06-19 20:56:00,63.3,45.9,30.07,ENE,61,1.0,3.0,53,0.00,,,0.00,12.0,meteohub,2013-06-20 00:56:00,
2013-06-19 21:01:00,63.1,46.2,30.07,ENE,61,0.0,2.0,54,0.00,,,0.00,11.0,meteohub,2013-06-20 01:01:00,
2013-06-19 21:06:00,62.8,45.9,30.07,ENE,61,0.0,2.0,54,0.00,,,0.00,11.0,meteohub,2013-06-20 01:06:00,
2013-06-19 21:11:00,62.4,46.6,30.07,ENE,61,0.0,2.0,56,0.00,,,0.00,9.0,meteohub,2013-06-20 01:11:00,
2013-06-19 21:16:00,61.9,46.4,30.07,ENE,61,0.0,2.0,57,0.00,,,0.00,7.0,meteohub,2013-06-20 01:16:00,
2013-06-19 21:21:00,61.5,46.6,30.07,ENE,61,1.0,2.0,58,0.00,,,0.00,5.0,meteohub,2013-06-20 01:21:00,
2013-06-19 21:26:00,61.3,46.4,30.07,ENE,63,1.0,2.0,58,0.00,,,0.00,0.0,meteohub,2013-06-20 01:26:00,
2013-06-19 21:31:00,61.0,45.7,30.07,ENE,59,0.0,2.0,57,0.00,,,0.00,0.0,meteohub,2013-06-20 01:31:00,
2013-06-19 21:36:00,60.6,45.3,30.07,ENE,59,0.0,2.0,57,0.00,,,0.00,0.0,meteohub,2013-06-20 01:36:00,
2013-06-19 21:41:00,60.3,45.0,30.07,ENE,59,0.0,1.0,57,0.00,,,0.00,0.0,meteohub,2013-06-20 01:41:00,
2013-06-19 21:46:00,60.1,44.8,30.07,ENE,59,0.0,1.0,57,0.00,,,0.00,0.0,meteohub,2013-06-20 01:46:00,
2013-06-19 21:51:00,59.7,45.3,30.07,ENE,59,0.0,1.0,59,0.00,,,0.00,0.0,meteohub,2013-06-20 01:51:00,
2013-06-19 21:56:00,59.4,45.5,30.07,ENE,59,0.0,1.0,60,0.00,,,0.00,0.0,meteohub,2013-06-20 01:56:00,
2013-06-19 22:01:00,59.0,45.1,30.07,ENE,59,0.0,1.0,60,0.00,,,0.00,0.0,meteohub,2013-06-20 02:01:00,
2013-06-19 22:06:00,58.6,44.8,30.07,ENE,59,0.0,1.0,60,0.00,,,0.00,0.0,meteohub,2013-06-20 02:06:00,
2013-06-19 22:11:00,58.6,45.3,30.07,ENE,72,1.0,1.0,61,0.00,,,0.00,0.0,meteohub,2013-06-20 02:11:00,
2013-06-19 22:16:00,58.3,45.0,30.07,ENE,74,1.0,2.0,61,0.00,,,0.00,0.0,meteohub,2013-06-20 02:16:00,
2013-06-19 22:21:00,57.9,45.3,30.07,ENE,74,0.0,2.0,63,0.00,,,0.00,0.0,meteohub,2013-06-20 02:21:00,
2013-06-19 22:26:00,57.6,45.5,30.08,ENE,74,0.0,2.0,64,0.00,,,0.00,0.0,meteohub,2013-06-20 02:26:00,
2013-06-19 22:31:00,57.0,45.0,30.08,ENE,74,0.0,2.0,64,0.00,,,0.00,0.0,meteohub,2013-06-20 02:31:00,
2013-06-19 22:36:00,56.8,44.8,30.08,ENE,74,0.0,1.0,64,0.00,,,0.00,0.0,meteohub,2013-06-20 02:36:00,
2013-06-19 22:41:00,56.8,44.8,30.08,ENE,75,0.0,1.0,64,0.00,,,0.00,0.0,meteohub,2013-06-20 02:41:00,
2013-06-19 22:46:00,56.7,45.5,30.08,ENE,75,1.0,1.0,66,0.00,,,0.00,0.0,meteohub,2013-06-20 02:46:00,
2013-06-19 22:51:00,56.1,45.3,30.08,ENE,75,0.0,2.0,67,0.00,,,0.00,0.0,meteohub,2013-06-20 02:51:00,
2013-06-19 22:56:00,55.9,45.1,30.08,ENE,75,0.0,2.0,67,0.00,,,0.00,0.0,meteohub,2013-06-20 02:56:00,
2013-06-19 23:01:00,55.8,45.0,30.08,ENE,75,1.0,2.0,67,0.00,,,0.00,0.0,meteohub,2013-06-20 03:01:00,
2013-06-19 23:06:00,55.8,45.0,30.08,ENE,75,0.0,1.0,67,0.00,,,0.00,0.0,meteohub,2013-06-20 03:06:00,
2013-06-19 23:11:00,55.6,44.8,30.08,ENE,75,0.0,1.0,67,0.00,,,0.00,0.0,meteohub,2013-06-20 03:11:00,
2013-06-19 23:16:00,55.8,45.3,30.08,ENE,75,0.0,1.0,68,0.00,,,0.00,0.0,meteohub,2013-06-20 03:16:00,
2013-06-19 23:21:00,55.8,45.3,30.09,ENE,75,0.0,1.0,68,0.00,,,0.00,0.0,meteohub,2013-06-20 03:21:00,
2013-06-19 23:26:00,55.8,45.3,30.09,ENE,75,0.0,1.0,68,0.00,,,0.00,0.0,meteohub,2013-06-20 03:26:00,
2013-06-19 23:31:00,55.8,45.3,30.08,ENE,76,0.0,1.0,68,0.00,,,0.00,0.0,meteohub,2013-06-20 03:31:00,
2013-06-19 23:36:00,55.8,45.3,30.08,ESE,115,0.0,1.0,68,0.00,,,0.00,0.0,meteohub,2013-06-20 03:36:00,
2013-06-19 23:41:00,55.6,45.1,30.08,ESE,115,0.0,2.0,68,0.00,,,0.00,0.0,meteohub,2013-06-20 03:41:00,
2013-06-19 23:46:00,55.2,45.1,30.08,ESE,115,0.0,2.0,69,0.00,,,0.00,0.0,meteohub,2013-06-20 03:46:00,
2013-06-19 23:51:00,55.0,45.5,30.08,ESE,115,0.0,1.0,70,0.00,,,0.00,0.0,meteohub,2013-06-20 03:51:00,
2013-06-19 23:56:00,54.7,45.1,30.08,ESE,115,0.0,1.0,70,0.00,,,0.00,0.0,meteohub,2013-06-20 03:56:00,